Time;durP1;ratioP1;P1;durP2;ratioP2;P2;SDS_P1;SDS_P2;PMS_P1;PMS_P2;Temp;Humidity;BMP_temperature;BMP_pressure;BME280_temperature;BME280_humidity;BME280_pressure;Samples;Min_cycle;Max_cycle;Signal;HPM_P1;HPM_P2
2022/08/19 00:01:49;;;;;;;2.05;0.73;;;;;;;22.23;81.46;100877.66;7389503;19;20011;-65
2022/08/19 00:04:23;;;;;;;2.78;0.40;;;;;;;22.28;82.11;100877.78;7385369;19;20481;-63
2022/08/19 00:06:51;;;;;;;2.88;0.60;;;;;;;22.29;81.64;100890.16;7389329;19;20014;-64
2022/08/19 00:09:19;;;;;;;1.75;0.40;;;;;;;22.32;81.74;100884.31;7389048;19;20078;-64
2022/08/19 00:11:47;;;;;;;2.75;0.38;;;;;;;22.33;81.93;100888.66;7386479;19;20366;-63
2022/08/19 00:14:16;;;;;;;2.47;0.50;;;;;;;22.33;82.05;100893.19;7387047;19;20018;-65
2022/08/19 00:16:45;;;;;;;1.92;0.45;;;;;;;22.30;82.02;100885.63;7388402;19;20014;-65
2022/08/19 00:19:12;;;;;;;4.00;1.55;;;;;;;22.29;82.73;100884.78;7385868;19;20014;-64
2022/08/19 00:21:39;;;;;;;3.30;0.60;;;;;;;22.28;82.55;100877.78;7388025;19;20018;-63
2022/08/19 00:24:08;;;;;;;2.15;0.57;;;;;;;22.28;82.72;100876.97;7385664;19;20015;-64
2022/08/19 00:26:36;;;;;;;2.28;0.85;;;;;;;22.28;82.37;100885.00;7387487;19;20727;-63
2022/08/19 00:29:05;;;;;;;5.95;0.50;;;;;;;22.22;83.02;100876.00;7386776;19;20505;-64
2022/08/19 00:31:32;;;;;;;1.35;0.55;;;;;;;22.19;82.88;100876.47;7386790;19;20395;-65
2022/08/19 00:33:59;;;;;;;1.65;0.68;;;;;;;22.14;83.19;100865.63;7384483;19;20402;-64
2022/08/19 00:36:26;;;;;;;4.78;0.50;;;;;;;22.13;83.41;100867.47;7386255;19;20018;-65
2022/08/19 00:38:53;;;;;;;1.65;0.60;;;;;;;22.13;83.70;100870.16;7382203;19;20411;-65
2022/08/19 00:41:21;;;;;;;2.40;0.70;;;;;;;22.10;83.23;100859.88;7386148;19;20011;-65
2022/08/19 00:44:22;;;;;;;3.30;0.70;;;;;;;22.11;83.91;100858.03;7387236;19;20006;-63
2022/08/19 00:46:54;;;;;;;3.67;0.75;;;;;;;22.10;83.70;100861.75;7387522;19;20019;-65
2022/08/19 00:49:24;;;;;;;1.92;0.57;;;;;;;22.09;83.76;100862.81;7382584;19;20029;-63
2022/08/19 00:51:55;;;;;;;1.52;0.60;;;;;;;22.09;83.55;100866.31;7386002;19;20374;-65
2022/08/19 00:54:22;;;;;;;3.35;1.20;;;;;;;22.12;84.11;100867.69;7386464;19;20025;-64
2022/08/19 00:56:59;;;;;;;4.78;0.68;;;;;;;22.14;83.97;100860.25;7384254;19;20147;-69
2022/08/19 00:59:28;;;;;;;3.85;0.68;;;;;;;22.12;84.10;100855.13;7386056;19;20029;-64
2022/08/19 01:02:16;;;;;;;3.63;0.80;;;;;;;22.12;84.20;100855.13;7386414;19;20146;-64
2022/08/19 01:04:43;;;;;;;2.08;0.60;;;;;;;22.13;84.58;100854.09;7383599;19;20436;-64
2022/08/19 01:07:10;;;;;;;5.07;0.65;;;;;;;22.14;84.56;100855.72;7386368;19;20026;-66
2022/08/19 01:09:43;;;;;;;;;;;;;;;22.16;83.95;100853.63;7386710;19;20015;-65
2022/08/19 01:12:09;;;;;;;3.90;0.70;;;;;;;22.16;84.36;100852.78;7387462;19;19953;-65
2022/08/19 01:14:39;;;;;;;3.58;0.70;;;;;;;22.17;84.64;100849.06;7383750;19;20021;-64
2022/08/19 01:17:10;;;;;;;4.80;0.70;;;;;;;22.19;84.75;100857.72;7387611;19;20272;-64
2022/08/19 01:19:41;;;;;;;1.77;0.50;;;;;;;22.17;84.14;100844.53;7381968;19;20018;-64
2022/08/19 01:22:49;;;;;;;2.45;0.60;;;;;;;22.16;84.31;100845.56;7386250;19;20376;-64
2022/08/19 01:25:22;;;;;;;3.47;0.90;;;;;;;22.15;84.81;100851.16;7386418;19;20553;-64
2022/08/19 01:28:00;;;;;;;2.10;0.95;;;;;;;22.17;85.22;100844.53;7385243;19;20041;-64
2022/08/19 01:30:37;;;;;;;3.65;0.80;;;;;;;22.20;85.33;100853.97;7384815;19;20011;-65
2022/08/19 01:33:10;;;;;;;2.75;0.80;;;;;;;22.22;84.74;100857.25;7385944;19;20021;-64
2022/08/19 01:35:37;;;;;;;2.83;0.50;;;;;;;22.21;84.57;100855.59;7382378;19;20033;-65
2022/08/19 01:38:09;;;;;;;4.25;0.88;;;;;;;22.21;84.55;100852.94;7384875;19;20018;-64
2022/08/19 01:40:39;;;;;;;3.17;0.73;;;;;;;22.21;84.99;100852.09;7385638;19;20006;-64
2022/08/19 01:43:07;;;;;;;2.85;0.73;;;;;;;22.20;85.17;100847.81;7385636;19;20451;-64
2022/08/19 01:45:39;;;;;;;3.13;1.10;;;;;;;22.20;85.58;100850.50;7385554;19;20482;-65
2022/08/19 01:48:07;;;;;;;2.78;1.00;;;;;;;22.21;85.71;100844.06;7385303;19;20051;-64
2022/08/19 01:50:35;;;;;;;2.65;0.70;;;;;;;22.20;85.48;100845.91;7382609;19;20378;-64
2022/08/19 01:53:06;;;;;;;3.53;0.88;;;;;;;22.20;85.51;100845.13;7384791;19;20029;-64
2022/08/19 01:55:36;;;;;;;4.35;0.73;;;;;;;22.18;85.90;100843.50;7384235;19;20011;-64
2022/08/19 01:58:20;;;;;;;4.82;0.80;;;;;;;22.17;85.67;100847.22;7385190;19;20023;-64
2022/08/19 02:00:53;;;;;;;4.90;1.05;;;;;;;22.17;86.01;100849.06;7386294;19;20105;-64
2022/08/19 02:03:21;;;;;;;3.20;1.10;;;;;;;22.18;86.82;100851.53;7385583;19;20014;-64
2022/08/19 02:05:59;;;;;;;3.40;0.80;;;;;;;22.19;86.41;100852.34;7382476;19;20034;-65
2022/08/19 02:08:30;;;;;;;2.38;0.70;;;;;;;22.18;85.90;100856.91;7384714;19;20018;-65
2022/08/19 02:11:00;;;;;;;2.72;1.00;;;;;;;22.17;85.78;100851.75;7384470;19;20129;-64
2022/08/19 02:13:27;;;;;;;5.35;1.05;;;;;;;22.14;86.50;100844.19;7384518;19;20034;-64
2022/08/19 02:15:55;;;;;;;2.00;0.75;;;;;;;22.14;86.13;100855.72;7383524;19;20014;-65
2022/08/19 02:18:33;;;;;;;2.90;0.93;;;;;;;22.13;86.18;100855.94;7384407;19;20035;-64
2022/08/19 02:21:02;;;;;;;13.60;6.10;;;;;;;22.13;86.70;100853.25;7379632;19;20603;-65
2022/08/19 02:23:31;;;;;;;4.95;0.98;;;;;;;22.17;86.85;100857.94;7384090;19;20666;-64
2022/08/19 02:25:58;;;;;;;3.70;1.15;;;;;;;22.18;87.09;100850.72;7383783;19;20367;-63
2022/08/19 02:28:29;;;;;;;3.58;0.90;;;;;;;22.16;86.81;100848.25;7383198;19;20013;-64
2022/08/19 02:31:02;;;;;;;2.13;0.82;;;;;;;22.14;86.70;100849.53;7384429;19;20579;-64
2022/08/19 02:33:29;;;;;;;2.53;0.77;;;;;;;22.16;86.25;100852.78;7383433;19;20053;-64
2022/08/19 02:35:56;;;;;;;4.20;0.90;;;;;;;22.15;86.58;100848.47;7380264;19;20494;-63
2022/08/19 02:38:29;;;;;;;9.00;3.55;;;;;;;22.17;86.86;100849.06;7381282;19;20014;-65
2022/08/19 02:41:02;;;;;;;2.63;1.00;;;;;;;22.16;87.01;100850.94;7384024;19;20044;-64
2022/08/19 02:43:33;;;;;;;3.50;1.05;;;;;;;22.14;86.73;100846.84;7382817;19;20041;-63
2022/08/19 02:46:02;;;;;;;4.72;0.80;;;;;;;22.13;87.07;100855.94;7378402;19;20031;-63
2022/08/19 02:48:33;;;;;;;2.47;0.73;;;;;;;22.12;86.81;100860.47;7383192;19;20037;-64
2022/08/19 02:51:02;;;;;;;5.18;0.98;;;;;;;22.11;87.16;100860.69;7381001;19;20094;-64
2022/08/19 02:53:32;;;;;;;6.55;1.00;;;;;;;22.13;86.81;100861.31;7382828;19;20010;-64
2022/08/19 02:55:59;;;;;;;5.85;1.45;;;;;;;22.11;87.00;100858.03;7384099;19;20035;-63
2022/08/19 02:58:32;;;;;;;4.07;1.10;;;;;;;22.14;88.03;100865.63;7389523;19;20024;-63
2022/08/19 03:01:02;;;;;;;5.85;0.80;;;;;;;22.10;88.07;100851.84;7390704;19;20526;-65
2022/08/19 03:03:29;;;;;;;5.00;0.70;;;;;;;;;;7391125;19;20015;-64
2022/08/19 03:06:07;;;;;;;2.42;0.90;;;;;;;22.09;87.92;100858.28;7387494;19;20122;-65
2022/08/19 03:08:37;;;;;;;3.10;0.60;;;;;;;22.07;87.62;100862.22;7390536;19;20011;-64
2022/08/19 03:11:04;;;;;;;4.68;0.88;;;;;;;22.05;88.41;100861.59;7390875;19;20010;-65
2022/08/19 03:13:31;;;;;;;4.85;0.80;;;;;;;22.05;88.31;100850.88;7391239;19;20074;-65
2022/08/19 03:16:04;;;;;;;4.45;0.90;;;;;;;22.06;88.74;100857.88;7387425;19;20037;-64
2022/08/19 03:18:35;;;;;;;4.70;1.20;;;;;;;22.07;88.98;100860.34;7391263;19;20014;-65
2022/08/19 03:21:04;;;;;;;4.88;0.98;;;;;;;22.08;88.67;100861.16;7389054;19;20010;-65
2022/08/19 03:23:33;;;;;;;3.10;0.73;;;;;;;22.07;88.67;100859.53;7391561;19;20010;-65
2022/08/19 03:26:04;;;;;;;1.70;0.55;;;;;;;22.06;88.64;100863.25;7390728;19;20014;-63
2022/08/19 03:28:47;;;;;;;5.37;0.80;;;;;;;22.06;88.53;100863.25;7390639;19;20017;-65
2022/08/19 03:31:25;;;;;;;1.92;0.70;;;;;;;22.06;88.40;100858.72;7391919;19;20518;-63
2022/08/19 03:34:19;;;;;;;6.07;3.45;;;;;;;22.08;88.60;100861.16;7388166;19;20453;-63
2022/08/19 03:36:47;;;;;;;1.80;0.60;;;;;;;22.08;88.59;100853.94;7389245;19;20010;-63
2022/08/19 03:39:15;;;;;;;3.65;0.73;;;;;;;22.12;88.17;100862.34;7389743;19;20010;-62
2022/08/19 03:41:45;;;;;;;5.70;0.55;;;;;;;22.13;87.93;100856.75;7391162;19;20053;-64
2022/08/19 03:44:20;;;;;;;3.00;0.70;;;;;;;22.13;87.62;100866.66;7384533;19;20041;-64
2022/08/19 03:46:50;;;;;;;1.83;0.50;;;;;;;22.11;87.74;100860.69;7389141;19;20025;-63
2022/08/19 03:49:19;;;;;;;1.83;0.47;;;;;;;22.12;87.64;100867.69;7387147;19;20019;-65
2022/08/19 03:51:47;;;;;;;2.60;0.43;;;;;;;22.09;87.33;100866.31;7390253;19;20018;-64
2022/08/19 03:54:16;;;;;;;1.67;0.70;;;;;;;22.10;88.21;100873.28;7390278;19;20070;-64
2022/08/19 03:56:45;;;;;;;1.77;0.60;;;;;;;22.10;88.17;100872.47;7387528;19;20031;-64
2022/08/19 03:59:18;;;;;;;1.67;0.30;;;;;;;22.08;87.95;100878.06;7388120;19;20026;-65
2022/08/19 04:01:45;;;;;;;2.35;0.40;;;;;;;22.05;88.71;100870.47;7388900;19;21548;-65
2022/08/19 04:04:13;;;;;;;2.67;0.50;;;;;;;22.03;88.99;100861.03;7385734;19;20260;-64
2022/08/19 04:06:40;;;;;;;3.67;0.40;;;;;;;22.00;89.37;100866.81;7385757;19;20049;-64
2022/08/19 04:09:09;;;;;;;2.35;0.40;;;;;;;21.97;90.43;100868.13;7387993;19;20018;-65
2022/08/19 04:11:42;;;;;;;5.05;0.50;;;;;;;21.98;91.02;100868.94;7388031;19;20089;-65
2022/08/19 04:14:13;;;;;;;2.78;0.50;;;;;;;21.96;91.66;100862.97;7388486;19;20413;-65
2022/08/19 04:16:43;;;;;;;2.50;0.50;;;;;;;21.96;92.29;100857.63;7386311;19;20586;-65
2022/08/19 04:19:11;;;;;;;3.78;0.40;;;;;;;21.94;92.47;100867.75;7387249;19;20022;-65
2022/08/19 04:21:38;;;;;;;2.13;0.50;;;;;;;21.90;93.25;100872.69;7385919;19;20018;-65
2022/08/19 04:24:06;;;;;;;2.95;0.50;;;;;;;21.88;93.36;100879.34;7388774;19;20018;-65
2022/08/19 04:26:36;;;;;;;2.22;0.50;;;;;;;21.88;93.47;100879.34;7388767;19;20014;-65
2022/08/19 04:29:12;;;;;;;2.78;0.50;;;;;;;21.86;93.85;100876.88;7387409;19;20109;-64
2022/08/19 04:31:41;;;;;;;3.30;0.98;;;;;;;21.86;94.60;100876.88;7389056;19;20022;-64
2022/08/19 04:34:11;;;;;;;4.43;0.85;;;;;;;21.87;94.26;100881.19;7384747;19;20022;-64
2022/08/19 04:36:40;;;;;;;2.05;0.60;;;;;;;21.87;93.93;100881.19;7385480;19;20339;-65
2022/08/19 04:39:14;;;;;;;2.63;0.52;;;;;;;21.84;94.42;100881.63;7384684;19;20471;-64
2022/08/19 04:44:30;;;;;;;3.03;0.65;;;;;;;21.83;95.06;100879.19;7386150;19;20022;-65
2022/08/19 04:46:59;;;;;;;3.23;0.63;;;;;;;21.82;94.92;100889.09;7387387;19;20043;-65
2022/08/19 04:49:27;;;;;;;15.73;6.00;;;;;;;21.80;94.71;100888.50;7382963;19;20542;-65
2022/08/19 04:51:55;;;;;;;2.92;0.80;;;;;;;21.80;95.67;100888.50;7386111;19;20456;-65
2022/08/19 04:54:24;;;;;;;1.95;0.50;;;;;;;21.81;95.22;100892.00;7387342;19;20392;-64
2022/08/19 04:57:08;;;;;;;1.60;0.45;;;;;;;21.80;95.51;100891.16;7387678;19;20025;-65
2022/08/19 04:59:37;;;;;;;2.80;0.80;;;;;;;21.77;94.94;100892.47;7387094;19;20075;-64
2022/08/19 05:02:06;;;;;;;2.72;0.50;;;;;;;21.74;95.12;100894.75;7386970;19;20011;-64
2022/08/19 05:04:33;;;;;;;1.80;0.50;;;;;;;21.74;94.93;100894.75;7384302;19;20127;-64
2022/08/19 05:07:01;;;;;;;2.47;0.55;;;;;;;21.74;95.40;100900.09;7386056;19;20025;-65
2022/08/19 05:09:29;;;;;;;1.40;0.60;;;;;;;21.70;94.77;100907.78;7386934;19;20074;-65
2022/08/19 05:12:17;;;;;;;3.20;0.77;;;;;;;21.69;95.31;100908.00;7386210;19;20018;-64
2022/08/19 05:14:46;;;;;;;2.40;0.80;;;;;;;21.70;95.28;100917.66;7385546;19;20016;-64
2022/08/19 05:17:14;;;;;;;0.95;0.57;;;;;;;21.70;95.03;100909.63;7384756;19;20022;-65
2022/08/19 05:22:47;;;;;;;1.58;0.32;;;;;;;21.70;94.39;100915.00;7385260;19;20018;-64
2022/08/19 05:25:19;;;;;;;2.00;0.30;;;;;;;21.71;95.03;100919.31;7386621;19;20356;-64
2022/08/19 05:27:47;;;;;;;12.10;7.38;;;;;;;21.73;94.51;100911.88;7384866;19;20020;-64
2022/08/19 05:30:15;;;;;;;0.55;0.30;;;;;;;21.72;94.98;100921.78;7387673;19;20045;-64
2022/08/19 05:32:43;;;;;;;0.90;0.30;;;;;;;21.72;94.88;100915.59;7386105;19;20077;-64
2022/08/19 05:35:11;;;;;;;1.20;0.30;;;;;;;21.72;94.50;100912.91;7382251;19;20021;-64
2022/08/19 05:37:39;;;;;;;1.33;0.30;;;;;;;21.71;94.44;100914.78;7383290;19;20123;-65
2022/08/19 05:40:08;;;;;;;1.13;0.30;;;;;;;21.72;94.22;100915.59;7384978;19;20022;-64
2022/08/19 05:42:35;;;;;;;1.55;0.30;;;;;;;21.71;94.19;100924.66;7385844;19;20421;-64
2022/08/19 05:45:04;;;;;;;1.80;0.35;;;;;;;21.72;93.77;100921.78;7384609;19;20471;-64
2022/08/19 05:47:31;;;;;;;1.83;0.40;;;;;;;21.73;93.88;100925.28;7386322;19;20014;-64
2022/08/19 05:50:01;;;;;;;0.90;0.40;;;;;;;21.72;93.65;100920.97;7378659;19;20010;-64
2022/08/19 05:52:30;;;;;;;0.68;0.30;;;;;;;21.66;92.08;100921.84;7385391;19;20629;-64
2022/08/19 05:54:57;;;;;;;1.65;0.30;;;;;;;21.66;91.78;100933.38;7384212;19;20028;-65
2022/08/19 05:57:24;;;;;;;0.60;0.30;;;;;;;21.67;91.95;100921.63;7385961;19;20117;-64
2022/08/19 05:59:51;;;;;;;1.20;0.30;;;;;;;21.68;91.83;100920.59;7385463;19;20138;-64
2022/08/19 06:02:30;;;;;;;0.65;0.28;;;;;;;21.70;90.90;100920.34;7386265;19;20014;-64
2022/08/19 06:04:57;;;;;;;4.40;4.00;;;;;;;21.69;90.48;100926.75;7382695;19;20056;-65
2022/08/19 06:07:24;;;;;;;0.80;0.20;;;;;;;21.68;89.87;100925.97;7383951;19;20089;-64
2022/08/19 06:09:51;;;;;;;1.65;0.20;;;;;;;21.70;88.85;100923.84;7383978;19;20015;-64
2022/08/19 06:12:33;;;;;;;1.23;0.20;;;;;;;21.71;87.04;100938.88;7384688;19;20411;-63
2022/08/19 06:15:10;;;;;;;0.98;0.20;;;;;;;21.71;86.58;100930.03;7383654;19;20018;-64
2022/08/19 06:17:37;;;;;;;0.25;0.10;;;;;;;21.71;85.63;100935.38;7385436;19;20030;-64
2022/08/19 06:20:06;;;;;;;0.50;0.10;;;;;;;21.71;85.20;100944.25;7381580;19;20022;-64
2022/08/19 06:22:45;;;;;;;1.20;0.38;;;;;;;21.73;84.04;100938.69;7384695;19;20010;-64
2022/08/19 06:25:14;;;;;;;1.08;0.20;;;;;;;21.76;84.17;100933.69;7383762;19;20021;-65
2022/08/19 06:27:41;;;;;;;0.40;0.10;;;;;;;21.79;83.05;100939.66;7384102;19;20025;-65
2022/08/19 06:30:28;;;;;;;0.40;0.10;;;;;;;21.82;83.00;100937.34;7383514;19;20360;-65
2022/08/19 06:32:55;;;;;;;0.22;0.10;;;;;;;21.83;82.99;100933.63;7385437;19;20043;-65
2022/08/19 06:35:22;;;;;;;1.55;0.10;;;;;;;21.81;82.07;100933.00;7380486;19;20014;-65
2022/08/19 06:37:49;;;;;;;0.80;0.10;;;;;;;21.82;81.98;100936.50;7382557;19;20044;-65
2022/08/19 06:40:16;;;;;;;2.10;0.20;;;;;;;21.83;81.65;100938.16;7383551;19;20687;-65
2022/08/19 06:42:43;;;;;;;4.60;2.05;;;;;;;21.81;80.80;100950.94;7382919;19;20015;-65
2022/08/19 06:45:21;;;;;;;1.80;0.17;;;;;;;21.81;79.34;100950.94;7381490;19;20045;-62
2022/08/19 06:47:54;;;;;;;1.88;0.10;;;;;;;21.82;78.87;100956.09;7383616;19;20025;-64
2022/08/19 06:50:21;;;;;;;0.40;0.13;;;;;;;21.82;77.96;100947.22;7380632;19;20031;-63
2022/08/19 06:52:51;;;;;;;0.68;0.10;;;;;;;21.83;77.33;100952.38;7383642;19;20463;-67
2022/08/19 06:55:18;;;;;;;0.98;0.10;;;;;;;21.81;77.71;100959.81;7382843;19;20025;-68
2022/08/19 06:57:46;;;;;;;1.10;0.25;;;;;;;21.81;77.46;100953.63;7383717;19;20043;-67
2022/08/19 07:00:13;;;;;;;0.47;0.32;;;;;;;21.84;77.74;100964.69;7363280;19;20821;-67
2022/08/19 07:02:41;;;;;;;1.63;0.20;;;;;;;21.85;77.41;100966.34;7371294;19;20483;-67
2022/08/19 07:05:21;;;;;;;0.85;0.30;;;;;;;21.87;77.60;100958.09;7378590;19;20522;-66
2022/08/19 07:07:48;;;;;;;1.95;0.20;;;;;;;21.91;78.04;100970.00;7380193;19;20002;-67
2022/08/19 07:10:16;;;;;;;0.70;0.10;;;;;;;21.94;77.79;100965.03;7381308;19;20037;-67
2022/08/19 07:12:44;;;;;;;3.65;0.17;;;;;;;21.97;77.46;100974.50;7380038;19;20088;-68
2022/08/19 07:15:11;;;;;;;0.98;0.20;;;;;;;21.99;77.68;100965.19;7378914;19;20103;-68
2022/08/19 07:17:40;;;;;;;0.95;0.20;;;;;;;21.97;77.16;100975.31;7380495;19;20023;-64
2022/08/19 07:20:08;;;;;;;0.50;0.10;;;;;;;21.93;77.21;100973.28;7377739;19;20033;-65
2022/08/19 07:22:37;;;;;;;3.75;0.20;;;;;;;21.95;79.08;100974.72;7380821;19;20083;-64
2022/08/19 07:25:06;;;;;;;0.85;0.20;;;;;;;21.98;78.94;100976.97;7379293;19;20036;-65
2022/08/19 07:27:34;;;;;;;2.95;0.35;;;;;;;22.00;78.00;100982.09;7379390;19;20030;-65
2022/08/19 07:30:01;;;;;;;1.10;0.20;;;;;;;22.01;78.31;100973.00;7379763;19;20491;-64
2022/08/19 07:32:29;;;;;;;0.52;0.20;;;;;;;22.01;78.22;100973.81;7380019;19;20019;-65
2022/08/19 07:34:56;;;;;;;1.60;0.20;;;;;;;22.02;78.50;100972.78;7378572;19;20022;-64
2022/08/19 07:37:26;;;;;;;1.27;0.13;;;;;;;22.04;78.12;100977.94;7378602;19;20022;-65
2022/08/19 07:39:58;;;;;;;1.48;0.57;;;;;;;22.03;77.49;100973.59;7381254;19;20011;-65
2022/08/19 07:42:26;;;;;;;0.70;0.10;;;;;;;22.03;77.02;100982.47;7384225;19;20020;-64
2022/08/19 07:44:53;;;;;;;3.15;0.10;;;;;;;22.05;76.84;100968.81;7388302;19;20031;-64
2022/08/19 07:47:21;;;;;;;2.30;0.10;;;;;;;22.07;76.80;100977.47;7388102;19;20021;-65
2022/08/19 07:50:11;;;;;;;1.20;0.10;;;;;;;22.12;77.00;100973.06;7385745;19;20025;-65
2022/08/19 07:52:39;;;;;;;1.73;0.30;;;;;;;22.15;76.62;100971.78;7386982;19;20018;-65
2022/08/19 07:55:08;;;;;;;1.23;0.20;;;;;;;22.18;76.09;100984.75;7386154;19;20013;-67
2022/08/19 07:57:55;;;;;;;2.63;0.20;;;;;;;22.20;75.89;100979.97;7385976;19;20051;-65
2022/08/19 08:00:22;;;;;;;1.50;0.17;;;;;;;22.21;75.29;100976.25;7387715;19;20010;-65
2022/08/19 08:02:51;;;;;;;4.60;0.20;;;;;;;22.24;75.38;100978.50;7385227;19;20620;-65
2022/08/19 08:10:55;;;;;;;2.03;0.30;;;;;;;22.32;74.38;100975.50;7387571;19;20038;-65
2022/08/19 08:13:23;;;;;;;2.33;0.20;;;;;;;22.32;73.85;100986.22;7386727;19;20018;-64
2022/08/19 08:15:52;;;;;;;10.27;0.50;;;;;;;22.34;72.97;100991.38;7385441;19;20033;-64
2022/08/19 08:18:26;;;;;;;3.47;0.38;;;;;;;22.35;74.41;100993.81;7387539;19;20011;-65
2022/08/19 08:20:57;;;;;;;6.13;0.63;;;;;;;22.37;74.62;100994.41;7384899;19;20034;-64
2022/08/19 08:23:28;;;;;;;2.20;0.20;;;;;;;22.37;69.94;100998.97;7387582;19;20003;-64
2022/08/19 08:25:57;;;;;;;1.25;0.22;;;;;;;22.37;70.03;101007.00;7386088;19;20010;-65
2022/08/19 08:28:27;;;;;;;2.55;0.30;;;;;;;22.39;71.76;100995.03;7386650;19;20456;-64
2022/08/19 08:30:57;;;;;;;3.38;0.15;;;;;;;22.40;69.74;100998.53;7384496;19;20516;-65
2022/08/19 08:33:25;;;;;;;2.58;0.43;;;;;;;22.40;68.28;101002.00;7387258;19;20033;-66
2022/08/19 08:36:09;;;;;;;1.27;0.20;;;;;;;22.42;69.09;101004.47;7383640;19;20312;-68
2022/08/19 08:38:37;;;;;;;4.45;0.25;;;;;;;22.35;67.24;101004.53;7382318;19;20833;-68
2022/08/19 08:41:41;;;;;;;3.40;0.20;;;;;;;22.27;65.40;100999.50;7387042;19;20099;-68
2022/08/19 08:44:31;;;;;;;1.53;0.20;;;;;;;22.27;67.38;100991.47;7385938;19;20459;-66
2022/08/19 08:47:02;;;;;;;0.93;0.20;;;;;;;22.25;66.52;101006.94;7386763;19;20007;-63
2022/08/19 08:49:54;;;;;;;1.98;0.20;;;;;;;22.24;66.85;101009.88;7381916;19;20021;-64
2022/08/19 08:52:28;;;;;;;5.13;0.38;;;;;;;22.24;67.38;101002.66;7386564;19;20360;-63
2022/08/19 08:55:03;;;;;;;3.83;0.40;;;;;;;22.25;65.17;101006.94;7384675;19;20014;-63
2022/08/19 08:57:53;;;;;;;2.00;0.20;;;;;;;22.30;65.12;101012.44;7383872;19;20041;-63
2022/08/19 09:00:38;;;;;;;1.25;0.20;;;;;;;22.34;65.15;101000.25;7387020;19;20500;-63
2022/08/19 09:03:19;;;;;;;2.60;0.20;;;;;;;22.39;64.32;101003.06;7386419;19;20495;-63
2022/08/19 09:06:03;;;;;;;2.78;0.30;;;;;;;22.46;63.39;101005.63;7384924;19;20010;-68
2022/08/19 09:08:44;;;;;;;1.52;0.22;;;;;;;22.51;62.86;101000.41;7385529;19;20014;-69
2022/08/19 09:11:54;;;;;;;2.83;0.40;;;;;;;22.54;63.96;100997.31;7386851;19;20041;-67
2022/08/19 09:14:37;;;;;;;6.30;0.20;;;;;;;22.53;64.09;100996.47;7384988;19;20490;-68
2022/08/19 09:17:30;;;;;;;2.22;0.60;;;;;;;22.58;64.65;100996.63;7383224;19;20127;-68
2022/08/19 09:20:06;;;;;;;2.65;0.20;;;;;;;22.61;63.66;100993.47;7383592;19;20021;-68
2022/08/19 09:22:39;;;;;;;3.17;0.40;;;;;;;22.65;64.54;100985.81;7384841;19;20421;-67
2022/08/19 09:25:09;;;;;;;6.60;0.40;;;;;;;22.73;63.21;100984.69;7386671;19;20025;-67
2022/08/19 09:27:38;;;;;;;7.10;0.40;;;;;;;22.84;63.86;100987.41;7382892;19;20014;-68
2022/08/19 09:30:15;;;;;;;4.53;0.30;;;;;;;22.91;63.52;100988.09;7387258;19;20029;-67
2022/08/19 09:32:42;;;;;;;3.88;0.20;;;;;;;22.99;63.75;100992.34;7385550;19;20011;-67
2022/08/19 09:35:10;;;;;;;2.25;0.20;;;;;;;23.01;63.75;100980.31;7381797;19;20026;-69
2022/08/19 09:37:38;;;;;;;2.70;0.30;;;;;;;23.09;63.14;100989.09;7383471;19;20550;-68
2022/08/19 09:40:06;;;;;;;1.73;0.15;;;;;;;23.09;63.19;100984.53;7385710;19;20041;-68
2022/08/19 09:42:34;;;;;;;1.13;0.20;;;;;;;23.10;64.14;100988.84;7385534;19;20082;-67
2022/08/19 09:45:03;;;;;;;2.47;0.40;;;;;;;23.11;64.73;100982.41;7386440;19;20597;-68
2022/08/19 09:47:37;;;;;;;3.28;0.20;;;;;;;23.14;64.48;100983.84;7384583;19;20020;-68
2022/08/19 09:50:08;;;;;;;5.60;0.25;;;;;;;23.14;63.24;100989.19;7379877;19;20026;-68
2022/08/19 09:52:36;;;;;;;4.05;0.38;;;;;;;23.16;63.57;100989.81;7382751;19;20022;-70
2022/08/19 09:55:09;;;;;;;5.65;0.50;;;;;;;23.19;64.57;100981.28;7383355;19;20014;-69
2022/08/19 09:57:36;;;;;;;4.20;0.40;;;;;;;23.22;63.84;100986.16;7383830;19;20090;-68
2022/08/19 10:00:05;;;;;;;4.15;0.30;;;;;;;23.23;62.29;100998.56;7383742;19;20033;-68
2022/08/19 10:02:33;;;;;;;2.90;0.50;;;;;;;23.21;61.22;100988.03;7385777;19;20439;-67
2022/08/19 10:07:52;;;;;;;2.70;0.45;;;;;;;23.17;61.71;100991.41;7384929;19;20143;-67
2022/08/19 10:10:22;;;;;;;1.45;0.30;;;;;;;23.10;62.18;101004.16;7384919;19;20010;-67
2022/08/19 10:12:50;;;;;;;1.33;0.20;;;;;;;23.07;62.64;101002.72;7384046;19;20015;-68
2022/08/19 10:15:20;;;;;;;4.95;0.30;;;;;;;23.07;63.07;101000.03;7385228;19;20014;-68
2022/08/19 10:17:55;;;;;;;3.03;0.40;;;;;;;23.08;62.98;101000.84;7382720;19;20368;-67
2022/08/19 10:20:24;;;;;;;7.85;0.30;;;;;;;23.03;63.27;101002.38;7380308;19;20021;-67
2022/08/19 10:22:51;;;;;;;2.25;0.30;;;;;;;23.03;64.53;101007.75;7383606;19;20497;-66
2022/08/19 10:25:18;;;;;;;2.63;0.60;;;;;;;23.05;63.32;101004.03;7384718;19;20092;-67
2022/08/19 10:27:45;;;;;;;2.58;0.40;;;;;;;23.01;64.41;101001.78;7383591;19;20567;-67
2022/08/19 10:30:17;;;;;;;5.70;0.88;;;;;;;23.04;64.62;101008.56;7386040;19;20126;-67
2022/08/19 10:32:45;;;;;;;2.58;0.30;;;;;;;23.11;64.39;101003.09;7382387;19;20043;-68
2022/08/19 10:35:13;;;;;;;5.47;0.57;;;;;;;23.12;63.42;101000.16;7381427;19;20025;-68
2022/08/19 10:37:47;;;;;;;2.35;0.30;;;;;;;23.14;63.82;100998.09;7380001;19;20028;-68
2022/08/19 10:40:27;;;;;;;4.47;0.47;;;;;;;23.17;63.89;101000.28;7382827;19;20023;-67
2022/08/19 10:42:55;;;;;;;6.97;0.50;;;;;;;23.23;63.69;101003.91;7381476;19;20018;-68
2022/08/19 10:45:25;;;;;;;5.00;0.40;;;;;;;23.31;65.13;101003.59;7383551;19;20479;-67
2022/08/19 10:47:53;;;;;;;5.43;0.50;;;;;;;23.37;63.28;100999.97;7382789;19;20011;-68
2022/08/19 10:53:08;;;;;;;11.18;0.70;;;;;;;23.42;60.29;101000.91;7382436;19;20029;-68
2022/08/19 10:58:24;;;;;;;5.05;0.40;;;;;;;23.44;60.23;101006.88;7381761;19;20025;-67
2022/08/19 11:00:57;;;;;;;3.13;0.55;;;;;;;23.46;59.95;101017.44;7381391;19;20078;-68
2022/08/19 11:03:27;;;;;;;4.18;0.57;;;;;;;23.51;60.62;101014.84;7382599;19;20080;-67
2022/08/19 11:06:04;;;;;;;3.97;0.40;;;;;;;23.56;57.97;101019.53;7379596;19;20027;-67
2022/08/19 11:08:34;;;;;;;5.63;0.60;;;;;;;23.56;58.51;101014.16;7381450;19;20011;-67
2022/08/19 11:11:03;;;;;;;6.05;0.50;;;;;;;23.57;58.06;101019.28;7381621;19;20011;-67
2022/08/19 11:13:43;;;;;;;2.70;0.40;;;;;;;23.59;55.60;101014.50;7382315;19;20205;-67
2022/08/19 11:16:16;;;;;;;6.32;0.40;;;;;;;23.63;55.95;101023.72;7382400;19;20030;-67
2022/08/19 11:18:45;;;;;;;5.40;0.60;;;;;;;23.65;56.04;101023.50;7390354;19;20342;-68
2022/08/19 11:21:16;;;;;;;2.33;0.40;;;;;;;23.68;56.43;101023.00;7387175;19;20011;-68
2022/08/19 11:23:45;;;;;;;2.75;0.30;;;;;;;23.69;54.99;101014.72;7388081;19;20021;-68
2022/08/19 11:26:13;;;;;;;1.38;0.30;;;;;;;23.74;55.79;101022.91;7389496;19;20375;-67
2022/08/19 11:28:40;;;;;;;1.58;0.30;;;;;;;23.74;56.40;101012.16;7387579;19;20317;-68
2022/08/19 11:31:14;;;;;;;3.47;0.30;;;;;;;23.77;55.75;101016.25;7390650;19;20470;-67
2022/08/19 11:33:44;;;;;;;5.53;0.40;;;;;;;23.80;55.45;101019.28;7387271;19;20018;-68
2022/08/19 11:36:13;;;;;;;7.47;0.52;;;;;;;23.82;54.35;101019.06;7387099;19;20456;-67
2022/08/19 11:38:41;;;;;;;4.35;0.70;;;;;;;23.84;54.52;101019.63;7384134;19;20393;-68
2022/08/19 11:41:08;;;;;;;2.67;0.30;;;;;;;23.85;51.94;101022.09;7389180;19;20506;-66
2022/08/19 11:43:43;;;;;;;2.75;0.40;;;;;;;23.84;52.55;101025.00;7388479;19;20014;-67
2022/08/19 11:46:12;;;;;;;4.28;0.40;;;;;;;23.86;53.41;101018.34;7388780;19;20019;-67
2022/08/19 11:48:43;;;;;;;3.60;0.40;;;;;;;23.90;51.22;101025.94;7385972;19;20022;-67
2022/08/19 11:51:18;;;;;;;4.90;0.40;;;;;;;23.90;50.85;101026.75;7387447;19;20029;-68
2022/08/19 11:53:46;;;;;;;6.00;0.40;;;;;;;23.95;51.66;101018.78;7389690;19;20475;-66
2022/08/19 11:56:13;;;;;;;8.52;0.70;;;;;;;24.01;51.96;101022.41;7388604;19;20366;-68
2022/08/19 11:58:43;;;;;;;5.32;0.50;;;;;;;24.09;51.94;101017.47;7385704;19;20010;-67
2022/08/19 12:01:16;;;;;;;6.93;0.57;;;;;;;24.14;50.08;101030.22;7388584;19;20044;-67
2022/08/19 12:03:44;;;;;;;;;;;;;;;24.17;49.85;101024.41;7388975;19;20464;-67
2022/08/19 12:06:15;;;;;;;4.55;0.70;;;;;;;24.13;49.26;101020.50;7386618;19;19919;-69